Terminal Aerodrome Forecast
Issued by NWS

Home | Current Version | Previous Version | Graphics & Text | Print | Product List | Glossary On
Versions: 1 2 3 4 5 6 7 8 9 10 11 12 13 14 15 16 17 18 19 20 21 22 23 24 25 26 27 28 29 30 31 32 33 34 35
000
FTUS43 KLOT 290900 AAA
TAFORD
TAF AMD
KORD 290902Z 2909/3012 15007KT P6SM BKN090
     FM291200 35008KT 6SM BR BKN020
     FM291300 34011KT 5SM -DZ BR OVC012
     FM291400 32015G24KT 5SM -RASN OVC008
     FM291600 33018G31KT P6SM OVC012
     FM300100 33017G24KT P6SM BKN025
     FM300500 32015G22KT P6SM SCT025=

USA.gov is the U.S. government's official web portal to all federal, state and local government web resources and services.